Sioux Arrow — WAG6168 — position and weather

sailwx.info

Track history (hours):
 
Tides and Currents Weather Stations Pressure Air Temp Water Temp Dewpoint Dewpoint Depression Visibility Wind Speed Wind Dir Waves Ship Positions

Sioux Arrow

Owner: HARMON, JACK L, PORT ANGELES, WA. More information available from US FCC via Universal Licensing System and Coast Guard Vessel Documentation Center.

Last reported at 2015-Mar-27 23:47 UTC. Time now 2015-Mar-29 01:12 UTC.
Position N 47°34' W 122°21'.

Type: Port tender. MMSI: 366973370.

Date/timePositionNaut miles runAvg speedWind from/ knotsBaromVisibWave heightAir tempDewpointWater temp
2015-Mar-27 23:47N 47°34' W 122°21'1 6.6
2015-Mar-27 23:33N 47°35' W 122°22'0 6.8
2015-Mar-27 23:32N 47°36' W 122°22'0 0.4
2015-Mar-27 22:33N 47°36' W 122°22'0 1.6
2015-Mar-27 22:32N 47°36' W 122°22'2 2.0
2015-Mar-27 21:33N 47°38' W 122°23'0 0.0
2015-Mar-27 21:32N 47°38' W 122°23'2 2.0
2015-Mar-27 20:33N 47°36' W 122°22'0 0.0
2015-Mar-27 20:32N 47°36' W 122°22'2 2.0
2015-Mar-27 19:32N 47°38' W 122°23'1 1.6
2015-Mar-27 19:04N 47°37' W 122°23'3 6.3
2015-Mar-27 18:33N 47°34' W 122°21'1 3.6
2015-Mar-27 18:18N 47°35' W 122°22'1 1.4
2015-Mar-27 17:33N 47°36' W 122°22'0 0.1
2015-Mar-27 17:16N 47°36' W 122°22'0 0.2
2015-Mar-27 16:33N 47°36' W 122°22'0 0.5
2015-Mar-27 16:30N 47°36' W 122°22'2 0.3
2015-Mar-27 10:35N 47°34' W 122°21'0 0.0
2015-Mar-27 10:33N 47°34' W 122°21'0 0.0
2015-Mar-27 10:30N 47°34' W 122°21'0 0.0
2015-Mar-27 02:33N 47°34' W 122°21'0 3.3
2015-Mar-27 02:30N 47°34' W 122°21'2 1.9
2015-Mar-27 01:34N 47°36' W 122°22'1 9.4
2015-Mar-27 01:30N 47°35' W 122°22'1 0.4
2015-Mar-26 22:07N 47°34' W 122°21'0 0.0
2015-Mar-26 22:04N 47°34' W 122°21'4 7.7
2015-Mar-26 21:33N 47°38' W 122°23'0 3.5
2015-Mar-26 21:29N 47°38' W 122°23'0 0.3
2015-Mar-26 20:33N 47°38' W 122°23'0 0.0
2015-Mar-26 20:29N 47°38' W 122°23'4 4.3
2015-Mar-26 19:33N 47°34' W 122°21'0 0.0
2015-Mar-26 00:50N 47°34' W 122°21'2 7.3
2015-Mar-26 00:33N 47°36' W 122°22'112.5
2015-Mar-26 00:30N 47°37' W 122°23'3 3.0
2015-Mar-25 23:33N 47°34' W 122°21'0 0.0
2015-Mar-25 23:29N 47°34' W 122°21'0 0.0
2015-Mar-25 18:33N 47°34' W 122°21'0 1.7
2015-Mar-25 18:29N 47°34' W 122°21'4 4.6
2015-Mar-25 17:33N 47°38' W 122°24'0 0.8
2015-Mar-25 17:23N 47°38' W 122°25'0 0.4
2015-Mar-25 16:33N 47°37' W 122°24'113.8
2015-Mar-25 16:29N 47°37' W 122°23'3 3.2
2015-Mar-25 15:33N 47°34' W 122°21'0 0.0
2015-Mar-25 15:29N 47°34' W 122°21'0 0.0
2015-Mar-25 14:20N 47°34' W 122°21'0 0.0
2015-Mar-25 13:46N 47°34' W 122°21'0 0.0
2015-Mar-25 13:33N 47°34' W 122°21'0 0.0
2015-Mar-25 13:32N 47°34' W 122°21'0 0.0
2015-Mar-25 12:33N 47°34' W 122°21'0 0.2
2015-Mar-25 12:32N 47°34' W 122°21'0 0.3
2015-Mar-25 11:33N 47°34' W 122°21'0 5.8
2015-Mar-25 11:31N 47°34' W 122°21'0 0.5
2015-Mar-25 10:33N 47°34' W 122°21'0 0.0
2015-Mar-25 10:31N 47°34' W 122°21'0 0.0
2015-Mar-25 06:00N 47°34' W 122°21'2 4.0
2015-Mar-25 05:33N 47°36' W 122°22'2 2.2
2015-Mar-25 04:33N 47°37' W 122°24'011.1
2015-Mar-25 04:31N 47°38' W 122°24'4 4.5
2015-Mar-25 03:33N 47°34' W 122°21'0 0.0
2015-Mar-25 03:31N 47°34' W 122°21'0 0.0
2015-Mar-24 20:22N 47°34' W 122°21'0 0.0
2015-Mar-24 20:20N 47°34' W 122°21'3 4.4
2015-Mar-24 19:33N 47°37' W 122°22'0 1.0
2015-Mar-24 19:29N 47°37' W 122°22'0 0.1
2015-Mar-24 18:33N 47°37' W 122°22'0 0.0
2015-Mar-24 18:29N 47°37' W 122°22'1 0.8
2015-Mar-24 17:33N 47°38' W 122°23'0 0.0
2015-Mar-24 17:29N 47°38' W 122°23'4 3.8
2015-Mar-24 16:33N 47°34' W 122°21'0 4.5
2015-Mar-24 16:29N 47°34' W 122°21'0 0.0
2015-Mar-22 16:07N 47°34' W 122°21'0 0.0
2015-Mar-22 16:05N 47°34' W 122°21'0 0.0
2015-Mar-22 15:34N 47°34' W 122°21'0 0.0
2015-Mar-22 15:30N 47°34' W 122°21'0 0.0
2015-Mar-22 14:33N 47°34' W 122°21'0 0.1
2015-Mar-22 14:30N 47°34' W 122°21'0 0.0
2015-Mar-22 13:34N 47°34' W 122°21'0 0.0
2015-Mar-22 13:30N 47°34' W 122°21'0 0.0
2015-Mar-22 12:33N 47°34' W 122°21'0 0.1
2015-Mar-22 12:30N 47°34' W 122°21'3 3.4
2015-Mar-22 11:33N 47°35' W 122°25'113.4
2015-Mar-22 11:30N 47°35' W 122°26'4 3.8
2015-Mar-22 10:33N 47°36' W 122°22'2 5.1
2015-Mar-22 10:14N 47°35' W 122°22'1 0.0
2015-Mar-21 02:56N 47°34' W 122°21'2 5.3
2015-Mar-21 02:33N 47°36' W 122°22'011.5
2015-Mar-21 02:32N 47°36' W 122°22'1 1.0
2015-Mar-21 01:33N 47°37' W 122°22'0 0.6
2015-Mar-21 01:31N 47°37' W 122°22'1 0.8
2015-Mar-21 00:33N 47°38' W 122°23'0 0.0
2015-Mar-21 00:31N 47°38' W 122°23'4 4.2
2015-Mar-20 23:33N 47°34' W 122°21'0 0.0
2015-Mar-20 23:31N 47°34' W 122°21'0 0.0
2015-Mar-20 18:44N 47°34' W 122°21'1 6.2
2015-Mar-20 18:34N 47°35' W 122°22'110.9
2015-Mar-20 18:29N 47°36' W 122°22'2 2.5
2015-Mar-20 17:33N 47°38' W 122°24'0 0.0
2015-Mar-20 17:29N 47°38' W 122°24'0 0.1
2015-Mar-20 16:34N 47°38' W 122°24'0 6.3
2015-Mar-20 16:33N 47°38' W 122°24'4 4.1
2015-Mar-20 15:33N 47°34' W 122°21'0 0.0
2015-Mar-20 15:29N 47°34' W 122°21'0 0.0
2015-Mar-20 12:04N 47°34' W 122°21'0 0.0
2015-Mar-20 12:03N 47°34' W 122°21'2 4.7
2015-Mar-20 11:34N 47°36' W 122°23'0145.6
2015-Mar-20 11:33N 47°36' W 122°23'1 1.1
2015-Mar-20 10:33N 47°35' W 122°22'016.2
2015-Mar-20 10:33N 47°35' W 122°22'1 1.2
2015-Mar-20 09:27N 47°34' W 122°21'0 0.0
2015-Mar-20 09:27N 47°34' W 122°21'4 4.6
2015-Mar-20 08:33N 47°37' W 122°24'0 0.1
2015-Mar-20 08:27N 47°37' W 122°24'4 4.6
2015-Mar-20 07:33N 47°34' W 122°21'0 0.0
2015-Mar-20 07:23N 47°34' W 122°21'0 0.0
2015-Mar-19 09:25N 47°34' W 122°21'1 4.7
2015-Mar-19 09:14N 47°35' W 122°22'4 6.3
2015-Mar-19 08:33N 47°38' W 122°25'114.1
2015-Mar-19 08:29N 47°38' W 122°25'4 4.7
2015-Mar-19 07:33N 47°34' W 122°21'0 0.0
2015-Mar-19 07:24N 47°34' W 122°21'0 0.0
2015-Mar-18 10:46N 47°34' W 122°21'2 7.4
2015-Mar-18 10:33N 47°36' W 122°21'1 7.3
2015-Mar-18 10:26N 47°37' W 122°21'3 3.8
2015-Mar-18 09:33N 47°36' W 122°26'4 7.0
2015-Mar-18 08:58N 47°36' W 122°20'0 0.0
2015-Mar-18 08:33N 47°36' W 122°20'1 1.6
2015-Mar-18 08:02N 47°36' W 122°21'2 3.5
2015-Mar-18 07:34N 47°37' W 122°23'0 0.0
2015-Mar-18 07:33N 47°37' W 122°23'0 0.1
2015-Mar-18 06:32N 47°37' W 122°24'0 0.0
2015-Mar-18 06:32N 47°37' W 122°24'0 1.2
2015-Mar-18 06:12N 47°38' W 122°23'3 4.8
2015-Mar-18 05:34N 47°35' W 122°22'  
Track history (hours):
 
Tides and Currents Weather Stations Pressure Air Temp Water Temp Dewpoint Dewpoint Depression Visibility Wind Speed Wind Dir Waves Ship Positions

Sioux Arrow

Owner: HARMON, JACK L, PORT ANGELES, WA. More information available from US FCC via Universal Licensing System and Coast Guard Vessel Documentation Center.

Last reported at 2015-Mar-27 23:47 UTC. Time now 2015-Mar-29 01:12 UTC.
Position N 47°34' W 122°21'.

Type: Port tender. MMSI: 366973370.

Date/timePositionNaut miles runAvg speedWind from/ knotsBaromVisibWave heightAir tempDewpointWater temp
2015-Mar-27 23:47N 47°34' W 122°21'1 6.6
2015-Mar-27 23:33N 47°35' W 122°22'0 6.8
2015-Mar-27 23:32N 47°36' W 122°22'0 0.4
2015-Mar-27 22:33N 47°36' W 122°22'0 1.6
2015-Mar-27 22:32N 47°36' W 122°22'2 2.0
2015-Mar-27 21:33N 47°38' W 122°23'0 0.0
2015-Mar-27 21:32N 47°38' W 122°23'2 2.0
2015-Mar-27 20:33N 47°36' W 122°22'0 0.0
2015-Mar-27 20:32N 47°36' W 122°22'2 2.0
2015-Mar-27 19:32N 47°38' W 122°23'1 1.6
2015-Mar-27 19:04N 47°37' W 122°23'3 6.3
2015-Mar-27 18:33N 47°34' W 122°21'1 3.6
2015-Mar-27 18:18N 47°35' W 122°22'1 1.4
2015-Mar-27 17:33N 47°36' W 122°22'0 0.1
2015-Mar-27 17:16N 47°36' W 122°22'0 0.2
2015-Mar-27 16:33N 47°36' W 122°22'0 0.5
2015-Mar-27 16:30N 47°36' W 122°22'2 0.3
2015-Mar-27 10:35N 47°34' W 122°21'0 0.0
2015-Mar-27 10:33N 47°34' W 122°21'0 0.0
2015-Mar-27 10:30N 47°34' W 122°21'0 0.0
2015-Mar-27 02:33N 47°34' W 122°21'0 3.3
2015-Mar-27 02:30N 47°34' W 122°21'2 1.9
2015-Mar-27 01:34N 47°36' W 122°22'1 9.4
2015-Mar-27 01:30N 47°35' W 122°22'1 0.4
2015-Mar-26 22:07N 47°34' W 122°21'0 0.0
2015-Mar-26 22:04N 47°34' W 122°21'4 7.7
2015-Mar-26 21:33N 47°38' W 122°23'0 3.5
2015-Mar-26 21:29N 47°38' W 122°23'0 0.3
2015-Mar-26 20:33N 47°38' W 122°23'0 0.0
2015-Mar-26 20:29N 47°38' W 122°23'4 4.3
2015-Mar-26 19:33N 47°34' W 122°21'0 0.0
2015-Mar-26 00:50N 47°34' W 122°21'2 7.3
2015-Mar-26 00:33N 47°36' W 122°22'112.5
2015-Mar-26 00:30N 47°37' W 122°23'3 3.0
2015-Mar-25 23:33N 47°34' W 122°21'0 0.0
2015-Mar-25 23:29N 47°34' W 122°21'0 0.0
2015-Mar-25 18:33N 47°34' W 122°21'0 1.7
2015-Mar-25 18:29N 47°34' W 122°21'4 4.6
2015-Mar-25 17:33N 47°38' W 122°24'0 0.8
2015-Mar-25 17:23N 47°38' W 122°25'0 0.4
2015-Mar-25 16:33N 47°37' W 122°24'113.8
2015-Mar-25 16:29N 47°37' W 122°23'3 3.2
2015-Mar-25 15:33N 47°34' W 122°21'0 0.0
2015-Mar-25 15:29N 47°34' W 122°21'0 0.0
2015-Mar-25 14:20N 47°34' W 122°21'0 0.0
2015-Mar-25 13:46N 47°34' W 122°21'0 0.0
2015-Mar-25 13:33N 47°34' W 122°21'0 0.0
2015-Mar-25 13:32N 47°34' W 122°21'0 0.0
2015-Mar-25 12:33N 47°34' W 122°21'0 0.2
2015-Mar-25 12:32N 47°34' W 122°21'0 0.3
2015-Mar-25 11:33N 47°34' W 122°21'0 5.8
2015-Mar-25 11:31N 47°34' W 122°21'0 0.5
2015-Mar-25 10:33N 47°34' W 122°21'0 0.0
2015-Mar-25 10:31N 47°34' W 122°21'0 0.0
2015-Mar-25 06:00N 47°34' W 122°21'2 4.0
2015-Mar-25 05:33N 47°36' W 122°22'2 2.2
2015-Mar-25 04:33N 47°37' W 122°24'011.1
2015-Mar-25 04:31N 47°38' W 122°24'4 4.5
2015-Mar-25 03:33N 47°34' W 122°21'0 0.0
2015-Mar-25 03:31N 47°34' W 122°21'0 0.0
2015-Mar-24 20:22N 47°34' W 122°21'0 0.0
2015-Mar-24 20:20N 47°34' W 122°21'3 4.4
2015-Mar-24 19:33N 47°37' W 122°22'0 1.0
2015-Mar-24 19:29N 47°37' W 122°22'0 0.1
2015-Mar-24 18:33N 47°37' W 122°22'0 0.0
2015-Mar-24 18:29N 47°37' W 122°22'1 0.8
2015-Mar-24 17:33N 47°38' W 122°23'0 0.0
2015-Mar-24 17:29N 47°38' W 122°23'4 3.8
2015-Mar-24 16:33N 47°34' W 122°21'0 4.5
2015-Mar-24 16:29N 47°34' W 122°21'0 0.0
2015-Mar-22 16:07N 47°34' W 122°21'0 0.0
2015-Mar-22 16:05N 47°34' W 122°21'0 0.0
2015-Mar-22 15:34N 47°34' W 122°21'0 0.0
2015-Mar-22 15:30N 47°34' W 122°21'0 0.0
2015-Mar-22 14:33N 47°34' W 122°21'0 0.1
2015-Mar-22 14:30N 47°34' W 122°21'0 0.0
2015-Mar-22 13:34N 47°34' W 122°21'0 0.0
2015-Mar-22 13:30N 47°34' W 122°21'0 0.0
2015-Mar-22 12:33N 47°34' W 122°21'0 0.1
2015-Mar-22 12:30N 47°34' W 122°21'3 3.4
2015-Mar-22 11:33N 47°35' W 122°25'113.4
2015-Mar-22 11:30N 47°35' W 122°26'4 3.8
2015-Mar-22 10:33N 47°36' W 122°22'2 5.1
2015-Mar-22 10:14N 47°35' W 122°22'1 0.0
2015-Mar-21 02:56N 47°34' W 122°21'2 5.3
2015-Mar-21 02:33N 47°36' W 122°22'011.5
2015-Mar-21 02:32N 47°36' W 122°22'1 1.0
2015-Mar-21 01:33N 47°37' W 122°22'0 0.6
2015-Mar-21 01:31N 47°37' W 122°22'1 0.8
2015-Mar-21 00:33N 47°38' W 122°23'0 0.0
2015-Mar-21 00:31N 47°38' W 122°23'4 4.2
2015-Mar-20 23:33N 47°34' W 122°21'0 0.0
2015-Mar-20 23:31N 47°34' W 122°21'0 0.0
2015-Mar-20 18:44N 47°34' W 122°21'1 6.2
2015-Mar-20 18:34N 47°35' W 122°22'110.9
2015-Mar-20 18:29N 47°36' W 122°22'2 2.5
2015-Mar-20 17:33N 47°38' W 122°24'0 0.0
2015-Mar-20 17:29N 47°38' W 122°24'0 0.1
2015-Mar-20 16:34N 47°38' W 122°24'0 6.3
2015-Mar-20 16:33N 47°38' W 122°24'4 4.1
2015-Mar-20 15:33N 47°34' W 122°21'0 0.0
2015-Mar-20 15:29N 47°34' W 122°21'0 0.0
2015-Mar-20 12:04N 47°34' W 122°21'0 0.0
2015-Mar-20 12:03N 47°34' W 122°21'2 4.7
2015-Mar-20 11:34N 47°36' W 122°23'0145.6
2015-Mar-20 11:33N 47°36' W 122°23'1 1.1
2015-Mar-20 10:33N 47°35' W 122°22'016.2
2015-Mar-20 10:33N 47°35' W 122°22'1 1.2
2015-Mar-20 09:27N 47°34' W 122°21'0 0.0
2015-Mar-20 09:27N 47°34' W 122°21'4 4.6
2015-Mar-20 08:33N 47°37' W 122°24'0 0.1
2015-Mar-20 08:27N 47°37' W 122°24'4 4.6
2015-Mar-20 07:33N 47°34' W 122°21'0 0.0
2015-Mar-20 07:23N 47°34' W 122°21'0 0.0
2015-Mar-19 09:25N 47°34' W 122°21'1 4.7
2015-Mar-19 09:14N 47°35' W 122°22'4 6.3
2015-Mar-19 08:33N 47°38' W 122°25'114.1
2015-Mar-19 08:29N 47°38' W 122°25'4 4.7
2015-Mar-19 07:33N 47°34' W 122°21'0 0.0
2015-Mar-19 07:24N 47°34' W 122°21'0 0.0
2015-Mar-18 10:46N 47°34' W 122°21'2 7.4
2015-Mar-18 10:33N 47°36' W 122°21'1 7.3
2015-Mar-18 10:26N 47°37' W 122°21'3 3.8
2015-Mar-18 09:33N 47°36' W 122°26'4 7.0
2015-Mar-18 08:58N 47°36' W 122°20'0 0.0
2015-Mar-18 08:33N 47°36' W 122°20'1 1.6
2015-Mar-18 08:02N 47°36' W 122°21'2 3.5
2015-Mar-18 07:34N 47°37' W 122°23'0 0.0
2015-Mar-18 07:33N 47°37' W 122°23'0 0.1
2015-Mar-18 06:32N 47°37' W 122°24'0 0.0
2015-Mar-18 06:32N 47°37' W 122°24'0 1.2
2015-Mar-18 06:12N 47°38' W 122°23'3 4.8
2015-Mar-18 05:34N 47°35' W 122°22'  

Dump ship's entire track history